Aktuální počasí v Česku a ve světě - METAR

Seznam meteostanic umístěných nejčasteji na letišti v ČR a ve světě

Vyhledat místa podle abecedy:
A B C D E F G H I J K L M N O P Q R S T U V W X Y Z

Filtrovat:

ID stanice:
a/nebo
Název místa (fulltext):
 
Místo (ID)Naposledy načteno 
Zadar (LDZD) 05.03.2021 09:00 UTC Zobrazit METAR
LDZD 050900Z 15008KT 9999 FEW040 11/06 Q1018 NOSIG
Zagreb (LDZA) 05.03.2021 09:00 UTC Zobrazit METAR
LDZA 050900Z 27008KT CAVOK 12/03 Q1015 NOSIG
Zaragoza (LEZG) 05.03.2021 09:00 UTC Zobrazit METAR
LEZG 050900Z 28005KT 250V320 8000 OVC040 11/08 Q1019
Zhezkazgan (UAKD) Zatím nenačteno  
Zurich (LSZH) 05.03.2021 08:50 UTC Zobrazit METAR
LSZH 050850Z 36002KT 9999 FEW018 SCT030 BKN037 06/04 Q1020 NOSIG
Reklama

Reklama


Počasí na Váš email

Emaily jsou bez reklamy a bez spamu



Odhlásit newsletter



Další české internetové stránky (nejen) o počasí najdete v katalogu TOPlist - weby o počasí nebo vyhledejte na internetu, co jste tu na 🌞 Slunečnu ⛅ zatím nenašli:
⭐ Přidat Slunečno.cz do oblíbených | 🏠 Nastavit Slunečno.cz jako HOMEPAGE

⬆️ Posunout stránku nahoru ⬆️
Reklama